createdAt,value
2023-11-08T00:00:03.361Z,100.00
2023-11-08T00:02:30.401Z,100.00
2023-11-08T00:04:57.402Z,100.00
2023-11-08T00:07:24.991Z,100.00
2023-11-08T00:09:51.952Z,100.00
2023-11-08T00:12:19.036Z,100.00
2023-11-08T00:14:46.983Z,100.00
2023-11-08T00:17:17.506Z,100.00
2023-11-08T00:19:44.524Z,100.00
2023-11-08T00:22:13.011Z,100.00
2023-11-08T00:24:40.161Z,100.00
2023-11-08T00:27:07.171Z,100.00
2023-11-08T00:29:34.481Z,100.00
2023-11-08T00:32:01.507Z,100.00
2023-11-08T00:34:28.986Z,100.00
2023-11-08T00:36:57.339Z,100.00
2023-11-08T00:39:24.353Z,100.00
2023-11-08T00:41:51.294Z,100.00
2023-11-08T00:44:18.251Z,100.00
2023-11-08T00:46:45.185Z,100.00
2023-11-08T00:49:14.282Z,100.00
2023-11-08T00:51:41.763Z,100.00
2023-11-08T00:54:08.921Z,100.00
2023-11-08T00:56:36.340Z,100.00
2023-11-08T00:59:03.981Z,100.00
2023-11-08T01:01:36.483Z,100.00
2023-11-08T01:04:08.257Z,100.00
2023-11-08T01:06:35.640Z,100.00
2023-11-08T01:09:02.634Z,100.00
2023-11-08T01:11:29.779Z,100.00
2023-11-08T01:13:56.779Z,100.00
2023-11-08T01:16:23.817Z,100.00
2023-11-08T01:18:50.887Z,100.00
2023-11-08T01:21:17.931Z,100.00
2023-11-08T01:23:45.134Z,100.00
2023-11-08T01:26:12.170Z,100.00
2023-11-08T01:28:39.425Z,100.00
2023-11-08T01:31:06.556Z,100.00
2023-11-08T01:33:33.562Z,100.00
2023-11-08T01:36:01.225Z,100.00
2023-11-08T01:38:28.172Z,100.00
2023-11-08T01:40:55.095Z,100.00
2023-11-08T01:43:30.238Z,100.00
2023-11-08T01:46:09.240Z,100.00
2023-11-08T01:48:36.429Z,100.00
2023-11-08T01:51:05.282Z,100.00
2023-11-08T01:53:37.284Z,100.00
2023-11-08T01:56:05.143Z,100.00
2023-11-08T01:58:35.317Z,100.00
2023-11-08T02:01:08.877Z,100.00
2023-11-08T02:03:41.405Z,100.00
2023-11-08T02:06:12.288Z,100.00
2023-11-08T02:08:40.656Z,100.00
2023-11-08T02:11:09.323Z,100.00
2023-11-08T02:13:36.260Z,100.00
2023-11-08T02:16:04.150Z,100.00
2023-11-08T02:18:32.596Z,100.00
2023-11-08T02:21:03.616Z,100.00
2023-11-08T02:23:33.188Z,100.00
2023-11-08T02:26:00.792Z,100.00
2023-11-08T02:28:28.284Z,100.00
2023-11-08T02:30:56.564Z,100.00
2023-11-08T02:33:28.753Z,100.00
2023-11-08T02:35:56.203Z,100.00
2023-11-08T02:38:23.180Z,100.00
2023-11-08T02:40:50.462Z,100.00
2023-11-08T02:43:17.872Z,100.00
2023-11-08T02:45:45.551Z,100.00
2023-11-08T02:48:12.610Z,100.00
2023-11-08T02:50:40.838Z,100.00
2023-11-08T02:53:08.510Z,100.00
2023-11-08T02:55:38.288Z,100.00
2023-11-08T02:58:05.419Z,100.00
2023-11-08T03:00:32.802Z,100.00
2023-11-08T03:03:00.004Z,100.00
2023-11-08T03:05:27.067Z,100.00
2023-11-08T03:07:55.699Z,100.00
2023-11-08T03:10:23.486Z,100.00
2023-11-08T03:12:52.740Z,100.00
2023-11-08T03:15:22.755Z,100.00
2023-11-08T03:17:52.585Z,100.00
2023-11-08T03:20:20.714Z,100.00
2023-11-08T03:22:48.509Z,100.00
2023-11-08T03:25:18.533Z,100.00
2023-11-08T03:27:47.588Z,100.00
2023-11-08T03:30:17.634Z,100.00
2023-11-08T03:32:45.765Z,100.00
2023-11-08T03:35:16.467Z,100.00
2023-11-08T03:37:44.757Z,100.00
2023-11-08T03:40:13.853Z,100.00
2023-11-08T03:42:47.882Z,100.00
2023-11-08T03:45:14.964Z,100.00
2023-11-08T03:47:42.912Z,100.00
2023-11-08T03:50:10.849Z,100.00
2023-11-08T03:52:38.164Z,100.00
2023-11-08T03:55:06.786Z,100.00
2023-11-08T03:57:33.848Z,100.00
2023-11-08T04:00:01.084Z,100.00
2023-11-08T04:02:28.559Z,100.00
2023-11-08T04:04:55.469Z,100.00
2023-11-08T04:07:22.507Z,100.00
2023-11-08T04:09:50.307Z,100.00
2023-11-08T04:12:17.401Z,100.00
2023-11-08T04:14:44.594Z,100.00
2023-11-08T04:17:11.906Z,100.00
2023-11-08T04:19:39.389Z,100.00
2023-11-08T04:22:07.483Z,100.00
2023-11-08T04:24:35.536Z,100.00
2023-11-08T04:27:05.631Z,100.00
2023-11-08T04:29:32.951Z,100.00
2023-11-08T04:32:00.189Z,100.00
2023-11-08T04:34:27.339Z,100.00
2023-11-08T04:36:54.428Z,100.00
2023-11-08T04:39:23.458Z,100.00
2023-11-08T04:41:52.080Z,100.00
2023-11-08T04:44:20.475Z,100.00
2023-11-08T04:46:47.816Z,100.00
2023-11-08T04:49:15.438Z,100.00
2023-11-08T04:51:43.106Z,100.00
2023-11-08T04:54:10.198Z,100.00
2023-11-08T04:56:37.229Z,100.00
2023-11-08T04:59:04.547Z,100.00
2023-11-08T05:01:31.527Z,100.00
2023-11-08T05:04:01.067Z,100.00
2023-11-08T05:06:28.662Z,100.00
2023-11-08T05:08:55.765Z,100.00
2023-11-08T05:11:22.969Z,100.00
2023-11-08T05:13:50.545Z,100.00
2023-11-08T05:16:27.044Z,100.00
2023-11-08T05:18:54.131Z,100.00
2023-11-08T05:21:22.407Z,100.00
2023-11-08T05:23:49.509Z,100.00
2023-11-08T05:26:17.597Z,100.00
2023-11-08T05:28:44.623Z,100.00
2023-11-08T05:31:12.986Z,100.00
2023-11-08T05:33:43.358Z,100.00
2023-11-08T05:36:10.355Z,100.00
2023-11-08T05:38:40.961Z,100.00
2023-11-08T05:41:07.924Z,100.00
2023-11-08T05:43:34.829Z,100.00
2023-11-08T05:46:01.814Z,100.00
2023-11-08T05:48:28.914Z,100.00
2023-11-08T05:50:55.905Z,100.00
2023-11-08T05:53:23.910Z,100.00
2023-11-08T05:55:51.279Z,100.00
2023-11-08T05:58:18.281Z,100.00
2023-11-08T06:00:45.413Z,100.00
2023-11-08T06:03:12.619Z,100.00
2023-11-08T06:05:40.279Z,100.00
2023-11-08T06:08:07.963Z,100.00
2023-11-08T06:10:35.203Z,100.00
2023-11-08T06:13:06.264Z,100.00
2023-11-08T06:15:33.310Z,100.00
2023-11-08T06:18:01.699Z,100.00
2023-11-08T06:20:28.948Z,100.00
2023-11-08T06:22:55.927Z,100.00
2023-11-08T06:25:23.831Z,100.00
2023-11-08T06:27:50.756Z,100.00
2023-11-08T06:30:18.211Z,100.00
2023-11-08T06:32:45.544Z,100.00
2023-11-08T06:35:13.074Z,100.00
2023-11-08T06:37:41.155Z,100.00
2023-11-08T06:40:10.366Z,100.00
2023-11-08T06:42:39.055Z,100.00
2023-11-08T06:45:07.970Z,100.00
2023-11-08T06:47:35.016Z,100.00
2023-11-08T06:50:03.219Z,100.00
2023-11-08T06:52:30.225Z,100.00
2023-11-08T06:54:57.191Z,100.00
2023-11-08T06:57:24.335Z,100.00
2023-11-08T06:59:51.277Z,100.00
2023-11-08T07:02:18.298Z,100.00
2023-11-08T07:04:45.331Z,100.00
2023-11-08T07:07:12.839Z,100.00
2023-11-08T07:09:40.480Z,100.00
2023-11-08T07:12:09.955Z,100.00
2023-11-08T07:14:37.719Z,100.00
2023-11-08T07:17:06.540Z,100.00
2023-11-08T07:19:34.014Z,100.00
2023-11-08T07:22:00.964Z,100.00
2023-11-08T07:24:28.000Z,100.00
2023-11-08T07:26:54.977Z,100.00
2023-11-08T07:29:23.428Z,100.00
2023-11-08T07:31:53.186Z,100.00
2023-11-08T07:34:23.438Z,100.00
2023-11-08T07:36:52.696Z,100.00
2023-11-08T07:39:27.016Z,100.00
2023-11-08T07:41:55.286Z,100.00
2023-11-08T07:44:22.307Z,100.00
2023-11-08T07:46:49.504Z,100.00
2023-11-08T07:49:17.317Z,100.00
2023-11-08T07:51:44.850Z,100.00
2023-11-08T07:54:12.173Z,100.00
2023-11-08T07:56:39.491Z,100.00
2023-11-08T07:59:06.848Z,100.00
2023-11-08T08:01:33.841Z,100.00
2023-11-08T08:04:01.397Z,100.00
2023-11-08T08:06:28.934Z,100.00
2023-11-08T08:08:58.194Z,100.00
2023-11-08T08:11:25.172Z,100.00
2023-11-08T08:13:53.522Z,100.00
2023-11-08T08:16:23.203Z,100.00
2023-11-08T08:18:50.295Z,100.00
2023-11-08T08:21:19.389Z,100.00
2023-11-08T08:23:51.686Z,100.00
2023-11-08T08:26:25.341Z,100.00
2023-11-08T08:28:52.289Z,99.52
2023-11-08T08:31:20.008Z,97.25
2023-11-08T08:33:47.072Z,97.62
2023-11-08T08:36:14.124Z,97.80
2023-11-08T08:38:41.377Z,97.27
2023-11-08T08:41:08.377Z,97.35
2023-11-08T08:43:36.224Z,97.42
2023-11-08T08:46:03.233Z,97.47
2023-11-08T08:48:30.304Z,97.11
2023-11-08T08:50:57.254Z,96.93
2023-11-08T08:53:24.294Z,97.49
2023-11-08T08:55:51.227Z,96.61
2023-11-08T08:58:18.277Z,97.47
2023-11-08T09:00:45.243Z,97.45
2023-11-08T09:03:12.279Z,96.64
2023-11-08T09:05:39.369Z,96.76
2023-11-08T09:08:06.502Z,96.40
2023-11-08T09:10:33.529Z,96.68
2023-11-08T09:13:00.874Z,94.93
2023-11-08T09:15:31.791Z,93.38
2023-11-08T09:17:58.980Z,93.13
2023-11-08T09:20:26.283Z,93.39
2023-11-08T09:22:53.240Z,92.32
2023-11-08T09:25:20.204Z,92.73
2023-11-08T09:27:47.324Z,92.85
2023-11-08T09:30:14.809Z,92.37
2023-11-08T09:32:42.188Z,92.50
2023-11-08T09:35:10.248Z,92.62
2023-11-08T09:37:37.793Z,92.41
2023-11-08T09:40:10.832Z,90.99
2023-11-08T09:42:39.464Z,91.44
2023-11-08T09:45:10.348Z,91.91
2023-11-08T09:47:39.647Z,92.91
2023-11-08T09:50:10.424Z,92.24
2023-11-08T09:52:40.933Z,92.80
2023-11-08T09:55:11.949Z,91.65
2023-11-08T09:57:40.664Z,90.65
2023-11-08T10:00:09.834Z,90.46
2023-11-08T10:02:38.803Z,91.19
2023-11-08T10:05:06.622Z,90.65
2023-11-08T10:07:34.573Z,91.50
2023-11-08T10:10:04.085Z,91.42
2023-11-08T10:12:33.793Z,92.63
2023-11-08T10:15:08.111Z,90.69
2023-11-08T10:19:30.489Z,90.31
2023-11-08T10:20:36.273Z,90.19
2023-11-08T10:23:04.529Z,90.82
2023-11-08T10:25:31.547Z,91.47
2023-11-08T10:28:07.602Z,93.58
2023-11-08T10:30:41.569Z,92.78
2023-11-08T10:33:14.154Z,91.66
2023-11-08T10:35:44.957Z,93.10
2023-11-08T10:38:12.318Z,91.92
2023-11-08T10:40:39.553Z,91.24
2023-11-08T10:43:07.091Z,91.24
2023-11-08T10:45:34.561Z,91.33
2023-11-08T10:48:02.285Z,89.96
2023-11-08T10:50:30.255Z,90.28
2023-11-08T10:52:58.407Z,90.83
2023-11-08T10:55:27.272Z,90.52
2023-11-08T10:57:59.967Z,89.85
2023-11-08T11:00:28.054Z,89.85
2023-11-08T11:03:02.618Z,89.32
2023-11-08T11:05:32.151Z,91.38
2023-11-08T11:08:01.692Z,91.07
2023-11-08T11:10:30.027Z,91.91
2023-11-08T11:13:08.285Z,91.79
2023-11-08T11:15:58.971Z,90.76
2023-11-08T11:18:35.423Z,90.35
2023-11-08T11:21:16.846Z,91.20
2023-11-08T11:23:44.023Z,90.36
2023-11-08T11:26:14.073Z,90.75
2023-11-08T11:28:53.559Z,89.62
2023-11-08T11:31:37.017Z,89.10
2023-11-08T11:34:22.724Z,90.21
2023-11-08T11:37:06.987Z,89.94
2023-11-08T11:39:36.067Z,89.77
2023-11-08T11:42:26.756Z,90.76
2023-11-08T11:45:01.349Z,91.01
2023-11-08T11:47:30.806Z,89.76
2023-11-08T11:50:02.291Z,90.27
2023-11-08T11:52:31.927Z,91.06
2023-11-08T11:55:00.887Z,89.03
2023-11-08T11:57:30.964Z,88.23
2023-11-08T12:00:01.104Z,86.89
2023-11-08T12:02:30.313Z,88.59
2023-11-08T12:05:00.028Z,88.43
2023-11-08T12:07:27.521Z,88.10
2023-11-08T12:09:55.312Z,88.58
2023-11-08T12:12:30.848Z,87.30
2023-11-08T12:14:58.970Z,86.09
2023-11-08T12:17:28.358Z,86.07
2023-11-08T12:19:56.114Z,85.22
2023-11-08T12:22:23.131Z,84.62
2023-11-08T12:24:50.801Z,84.27
2023-11-08T12:27:18.289Z,83.69
2023-11-08T12:29:46.219Z,84.47
2023-11-08T12:32:13.300Z,83.69
2023-11-08T12:34:41.861Z,85.23
2023-11-08T12:37:11.588Z,84.58
2023-11-08T12:39:38.696Z,85.74
2023-11-08T12:42:15.975Z,86.05
2023-11-08T12:44:47.964Z,85.22
2023-11-08T12:47:15.032Z,85.91
2023-11-08T12:49:43.296Z,85.71
2023-11-08T12:52:13.403Z,86.79
2023-11-08T12:54:40.399Z,86.31
2023-11-08T12:57:07.373Z,85.09
2023-11-08T12:59:43.431Z,84.15
2023-11-08T13:02:12.763Z,84.54
2023-11-08T13:04:43.135Z,84.18
2023-11-08T13:07:10.607Z,83.84
2023-11-08T13:09:41.514Z,81.89
2023-11-08T13:12:09.252Z,83.34
2023-11-08T13:14:36.171Z,83.18
2023-11-08T13:17:04.854Z,81.56
2023-11-08T13:19:31.849Z,81.08
2023-11-08T13:21:59.209Z,80.84
2023-11-08T13:24:26.261Z,81.75
2023-11-08T13:26:54.116Z,80.77
2023-11-08T13:29:22.022Z,80.91
2023-11-08T13:31:50.244Z,80.00
2023-11-08T13:34:17.543Z,80.06
2023-11-08T13:36:44.658Z,82.09
2023-11-08T13:39:11.766Z,81.86
2023-11-08T13:41:38.720Z,80.94
2023-11-08T13:44:06.393Z,80.88
2023-11-08T13:46:33.325Z,81.84
2023-11-08T13:49:01.499Z,80.00
2023-11-08T13:51:28.862Z,82.03
2023-11-08T13:53:55.755Z,82.57
2023-11-08T13:56:24.364Z,83.22
2023-11-08T13:58:51.436Z,83.19
2023-11-08T14:01:18.664Z,83.43
2023-11-08T14:03:46.165Z,81.89
2023-11-08T14:06:13.787Z,81.73
2023-11-08T14:08:41.470Z,82.09
2023-11-08T14:11:09.216Z,82.82
2023-11-08T14:13:36.441Z,82.52
2023-11-08T14:16:04.029Z,83.63
2023-11-08T14:18:31.070Z,84.60
2023-11-08T14:20:58.934Z,83.52
2023-11-08T14:23:25.926Z,83.34
2023-11-08T14:25:52.941Z,83.86
2023-11-08T14:28:20.428Z,83.81
2023-11-08T14:30:47.743Z,84.27
2023-11-08T14:33:16.941Z,83.15
2023-11-08T14:35:44.017Z,84.41
2023-11-08T14:38:11.100Z,82.54
2023-11-08T14:40:39.421Z,83.52
2023-11-08T14:43:06.548Z,82.74
2023-11-08T14:45:33.971Z,83.56
2023-11-08T14:48:01.039Z,82.10
2023-11-08T14:50:28.243Z,82.81
2023-11-08T14:52:55.350Z,82.48
2023-11-08T14:55:22.319Z,82.45
2023-11-08T14:57:49.364Z,82.83
2023-11-08T15:00:17.098Z,82.29
2023-11-08T15:02:44.139Z,82.30
2023-11-08T15:05:11.114Z,82.36
2023-11-08T15:09:42.835Z,82.95
2023-11-08T15:10:25.585Z,83.18
2023-11-08T15:12:56.193Z,83.29
2023-11-08T15:15:24.216Z,83.48
2023-11-08T15:17:51.340Z,85.02
2023-11-08T15:20:18.649Z,84.97
2023-11-08T15:22:46.035Z,84.67
2023-11-08T15:25:13.445Z,84.76
2023-11-08T15:27:40.902Z,85.02
2023-11-08T15:30:09.849Z,85.50
2023-11-08T15:32:40.183Z,85.32
2023-11-08T15:35:09.810Z,85.81
2023-11-08T15:37:38.110Z,85.99
2023-11-08T15:40:05.784Z,86.53
2023-11-08T15:42:33.410Z,87.02
2023-11-08T15:45:00.495Z,86.64
2023-11-08T15:47:27.597Z,86.23
2023-11-08T15:49:54.952Z,86.63
2023-11-08T15:52:22.713Z,85.94
2023-11-08T15:54:49.714Z,86.40
2023-11-08T15:57:16.748Z,85.76
2023-11-08T15:59:43.743Z,86.23
2023-11-08T16:02:10.689Z,87.07
2023-11-08T16:04:38.469Z,87.03
2023-11-08T16:07:05.554Z,87.14
2023-11-08T16:09:33.070Z,86.90
2023-11-08T16:12:00.121Z,87.68
2023-11-08T16:14:27.111Z,87.34
2023-11-08T16:16:54.069Z,87.45
2023-11-08T16:19:21.423Z,87.62
2023-11-08T16:21:50.748Z,87.96
2023-11-08T16:24:18.150Z,87.77
2023-11-08T16:26:45.439Z,87.64
2023-11-08T16:29:49.422Z,87.29
2023-11-08T16:32:33.615Z,87.24
2023-11-08T16:34:50.256Z,87.68
2023-11-08T16:37:17.861Z,87.37
2023-11-08T16:39:45.287Z,87.40
2023-11-08T16:42:12.394Z,87.99
2023-11-08T16:44:40.119Z,88.17
2023-11-08T16:47:07.402Z,88.65
2023-11-08T16:49:35.878Z,88.92
2023-11-08T16:52:02.838Z,88.76
2023-11-08T16:54:29.843Z,88.55
2023-11-08T16:56:59.633Z,88.05
2023-11-08T16:59:26.663Z,87.41
2023-11-08T17:01:53.579Z,87.29
2023-11-08T17:04:21.572Z,86.91
2023-11-08T17:06:51.056Z,86.60
2023-11-08T17:09:18.936Z,86.48
2023-11-08T17:11:46.068Z,86.19
2023-11-08T17:14:13.055Z,86.16
2023-11-08T17:16:43.057Z,85.89
2023-11-08T17:19:11.489Z,86.13
2023-11-08T17:21:38.676Z,86.28
2023-11-08T17:24:07.248Z,86.44
2023-11-08T17:26:34.511Z,86.51
2023-11-08T17:29:01.661Z,86.31
2023-11-08T17:31:30.023Z,85.93
2023-11-08T17:33:57.405Z,85.78
2023-11-08T17:36:24.416Z,86.29
2023-11-08T17:38:52.206Z,86.36
2023-11-08T17:41:19.371Z,86.12
2023-11-08T17:43:47.518Z,86.55
2023-11-08T17:46:15.528Z,86.73
2023-11-08T17:48:42.858Z,86.67
2023-11-08T17:51:09.909Z,86.46
2023-11-08T17:53:36.813Z,86.36
2023-11-08T17:56:06.959Z,86.20
2023-11-08T17:58:34.649Z,85.74
2023-11-08T18:01:01.661Z,87.07
2023-11-08T18:03:28.767Z,87.99
2023-11-08T18:05:58.626Z,88.63
2023-11-08T18:08:25.615Z,89.02
2023-11-08T18:10:52.577Z,88.82
2023-11-08T18:13:19.571Z,89.89
2023-11-08T18:15:48.595Z,89.50
2023-11-08T18:18:17.958Z,91.13
2023-11-08T18:20:45.060Z,91.09
2023-11-08T18:23:12.795Z,92.03
2023-11-08T18:25:41.052Z,91.98
2023-11-08T18:28:08.091Z,92.41
2023-11-08T18:30:35.119Z,92.25
2023-11-08T18:33:02.168Z,92.63
2023-11-08T18:35:29.514Z,92.91
2023-11-08T18:37:56.610Z,93.36
2023-11-08T18:40:24.184Z,93.13
2023-11-08T18:42:51.199Z,93.37
2023-11-08T18:45:18.770Z,92.53
2023-11-08T18:47:45.924Z,93.08
2023-11-08T18:50:14.413Z,93.06
2023-11-08T18:52:41.742Z,93.36
2023-11-08T18:55:09.207Z,92.97
2023-11-08T18:57:37.099Z,92.82
2023-11-08T19:00:10.517Z,92.09
2023-11-08T19:02:38.509Z,92.11
2023-11-08T19:05:06.996Z,92.57
2023-11-08T19:07:35.115Z,92.66
2023-11-08T19:10:04.747Z,92.43
2023-11-08T19:12:33.339Z,92.21
2023-11-08T19:15:00.309Z,92.69
2023-11-08T19:17:27.395Z,92.70
2023-11-08T19:19:54.327Z,92.88
2023-11-08T19:22:21.661Z,93.07
2023-11-08T19:24:49.377Z,93.39
2023-11-08T19:27:16.337Z,93.68
2023-11-08T19:29:43.234Z,94.65
2023-11-08T19:32:12.600Z,94.62
2023-11-08T19:34:40.264Z,94.39
2023-11-08T19:37:07.483Z,94.35
2023-11-08T19:39:34.490Z,94.13
2023-11-08T19:42:02.514Z,95.32
2023-11-08T19:44:30.914Z,95.69
2023-11-08T19:46:57.886Z,96.03
2023-11-08T19:49:25.292Z,96.73
2023-11-08T19:51:52.480Z,96.42
2023-11-08T19:54:20.025Z,97.06
2023-11-08T19:56:47.149Z,97.23
2023-11-08T19:59:14.201Z,96.72
2023-11-08T20:01:41.259Z,97.08
2023-11-08T20:04:08.286Z,97.62
2023-11-08T20:06:35.339Z,98.00
2023-11-08T20:09:02.331Z,97.74
2023-11-08T20:11:31.562Z,98.11
2023-11-08T20:14:01.749Z,97.61
2023-11-08T20:16:28.752Z,97.91
2023-11-08T20:18:55.723Z,98.08
2023-11-08T20:21:25.738Z,98.96
2023-11-08T20:23:53.488Z,100.00
2023-11-08T20:26:21.458Z,100.00
2023-11-08T20:28:50.513Z,100.00
2023-11-08T20:31:17.757Z,100.00
2023-11-08T20:33:45.143Z,100.00
2023-11-08T20:36:12.732Z,100.00
2023-11-08T20:38:41.485Z,100.00
2023-11-08T20:41:14.107Z,100.00
2023-11-08T20:43:42.263Z,100.00
2023-11-08T20:46:14.188Z,100.00
2023-11-08T20:48:41.288Z,100.00
2023-11-08T20:51:08.562Z,100.00
2023-11-08T20:53:35.948Z,100.00
2023-11-08T20:56:02.907Z,100.00
2023-11-08T20:58:29.854Z,100.00
2023-11-08T21:00:59.986Z,100.00
2023-11-08T21:03:29.060Z,100.00
2023-11-08T21:05:59.200Z,100.00
2023-11-08T21:08:26.241Z,100.00
2023-11-08T21:10:53.974Z,100.00
2023-11-08T21:13:21.007Z,100.00
2023-11-08T21:15:49.779Z,100.00
2023-11-08T21:18:19.849Z,100.00
2023-11-08T21:20:48.779Z,100.00
2023-11-08T21:23:15.858Z,100.00
2023-11-08T21:25:43.180Z,100.00
2023-11-08T21:28:10.158Z,100.00
2023-11-08T21:30:37.987Z,100.00
2023-11-08T21:33:05.618Z,100.00
2023-11-08T21:35:32.654Z,100.00
2023-11-08T21:37:59.914Z,99.99
2023-11-08T21:40:27.134Z,100.00
2023-11-08T21:42:55.505Z,99.59
2023-11-08T21:45:22.868Z,100.00
2023-11-08T21:47:49.977Z,100.00
2023-11-08T21:50:17.042Z,100.00
2023-11-08T21:52:43.984Z,100.00
2023-11-08T21:55:13.466Z,100.00
2023-11-08T21:57:40.445Z,100.00
2023-11-08T22:00:08.281Z,100.00
2023-11-08T22:02:35.230Z,100.00
2023-11-08T22:05:02.396Z,100.00
2023-11-08T22:07:29.611Z,100.00
2023-11-08T22:09:57.070Z,100.00
2023-11-08T22:12:24.476Z,100.00
2023-11-08T22:14:52.290Z,100.00
2023-11-08T22:17:19.363Z,100.00
2023-11-08T22:19:46.355Z,100.00
2023-11-08T22:22:13.470Z,100.00
2023-11-08T22:24:40.469Z,100.00
2023-11-08T22:27:07.649Z,100.00
2023-11-08T22:29:34.829Z,100.00
2023-11-08T22:32:01.849Z,100.00
2023-11-08T22:34:28.915Z,100.00
2023-11-08T22:36:55.902Z,100.00
2023-11-08T22:39:22.920Z,100.00
2023-11-08T22:41:49.826Z,100.00
2023-11-08T22:44:16.879Z,100.00
2023-11-08T22:46:43.834Z,100.00
2023-11-08T22:49:11.657Z,100.00
2023-11-08T22:51:38.982Z,100.00
2023-11-08T22:54:07.617Z,99.99
2023-11-08T22:56:35.469Z,99.91
2023-11-08T22:59:02.873Z,99.07
2023-11-08T23:01:33.927Z,99.01
2023-11-08T23:04:02.706Z,99.77
2023-11-08T23:06:31.394Z,99.30
2023-11-08T23:09:01.263Z,99.17
2023-11-08T23:11:31.351Z,98.37
2023-11-08T23:13:58.738Z,97.88
2023-11-08T23:16:26.305Z,97.92
2023-11-08T23:18:56.157Z,97.99
2023-11-08T23:21:23.528Z,98.20
2023-11-08T23:23:52.282Z,97.93
2023-11-08T23:26:20.243Z,98.22
2023-11-08T23:28:47.255Z,98.03
2023-11-08T23:31:14.237Z,98.39
2023-11-08T23:33:41.264Z,98.09
2023-11-08T23:36:13.536Z,97.70
2023-11-08T23:38:43.387Z,97.28
2023-11-08T23:41:10.782Z,97.65
2023-11-08T23:43:37.848Z,97.55
2023-11-08T23:46:05.080Z,97.72
2023-11-08T23:48:32.171Z,98.23
2023-11-08T23:50:59.063Z,98.50
2023-11-08T23:53:26.143Z,98.24
2023-11-08T23:55:53.340Z,98.74
2023-11-08T23:58:21.445Z,99.14
